sensor_id;sensor_type;location;lat;lon;timestamp;temperature;humidity
14401;DHT22;7285;50.894;5.462;2023-02-11T00:00:32;5.90;99.90
14401;DHT22;7285;50.894;5.462;2023-02-11T00:02:59;5.90;1.00
14401;DHT22;7285;50.894;5.462;2023-02-11T00:05:28;5.70;1.00
14401;DHT22;7285;50.894;5.462;2023-02-11T00:07:55;5.70;1.00
14401;DHT22;7285;50.894;5.462;2023-02-11T00:10:24;5.60;1.00
14401;DHT22;7285;50.894;5.462;2023-02-11T00:12:51;5.50;99.90
14401;DHT22;7285;50.894;5.462;2023-02-11T00:15:18;5.50;99.90
14401;DHT22;7285;50.894;5.462;2023-02-11T00:17:45;5.40;99.90
14401;DHT22;7285;50.894;5.462;2023-02-11T00:20:12;5.30;1.00
14401;DHT22;7285;50.894;5.462;2023-02-11T00:22:39;5.20;1.00
14401;DHT22;7285;50.894;5.462;2023-02-11T00:25:06;5.20;84.00
14401;DHT22;7285;50.894;5.462;2023-02-11T00:27:35;5.10;99.90
14401;DHT22;7285;50.894;5.462;2023-02-11T00:30:03;5.10;1.00
14401;DHT22;7285;50.894;5.462;2023-02-11T00:32:31;5.00;1.00
14401;DHT22;7285;50.894;5.462;2023-02-11T00:34:58;5.00;35.60
14401;DHT22;7285;50.894;5.462;2023-02-11T00:37:25;5.00;99.90
14401;DHT22;7285;50.894;5.462;2023-02-11T00:39:53;5.00;1.00
14401;DHT22;7285;50.894;5.462;2023-02-11T00:42:20;5.00;1.00
14401;DHT22;7285;50.894;5.462;2023-02-11T00:44:48;5.00;1.00
14401;DHT22;7285;50.894;5.462;2023-02-11T00:47:15;5.00;99.90
14401;DHT22;7285;50.894;5.462;2023-02-11T00:49:42;5.00;99.90
14401;DHT22;7285;50.894;5.462;2023-02-11T00:52:09;4.90;99.90
14401;DHT22;7285;50.894;5.462;2023-02-11T00:54:36;4.90;99.90
14401;DHT22;7285;50.894;5.462;2023-02-11T00:57:03;4.90;1.00
14401;DHT22;7285;50.894;5.462;2023-02-11T00:59:30;4.90;99.90
14401;DHT22;7285;50.894;5.462;2023-02-11T01:01:58;4.80;1.00
14401;DHT22;7285;50.894;5.462;2023-02-11T01:04:25;4.80;1.00
14401;DHT22;7285;50.894;5.462;2023-02-11T01:06:52;4.90;1.00
14401;DHT22;7285;50.894;5.462;2023-02-11T01:09:19;4.90;99.90
14401;DHT22;7285;50.894;5.462;2023-02-11T01:11:47;5.10;99.90
14401;DHT22;7285;50.894;5.462;2023-02-11T01:14:14;5.00;99.90
14401;DHT22;7285;50.894;5.462;2023-02-11T01:16:41;5.10;99.90
14401;DHT22;7285;50.894;5.462;2023-02-11T01:19:09;5.20;92.10
14401;DHT22;7285;50.894;5.462;2023-02-11T01:21:36;5.20;1.00
14401;DHT22;7285;50.894;5.462;2023-02-11T01:24:03;5.20;1.00
14401;DHT22;7285;50.894;5.462;2023-02-11T01:26:31;5.30;1.00
14401;DHT22;7285;50.894;5.462;2023-02-11T01:28:58;5.30;1.00
14401;DHT22;7285;50.894;5.462;2023-02-11T01:31:25;5.30;1.00
14401;DHT22;7285;50.894;5.462;2023-02-11T01:33:52;5.30;99.90
14401;DHT22;7285;50.894;5.462;2023-02-11T01:36:21;5.30;99.90
14401;DHT22;7285;50.894;5.462;2023-02-11T01:38:48;5.30;99.90
14401;DHT22;7285;50.894;5.462;2023-02-11T01:41:15;5.30;1.00
14401;DHT22;7285;50.894;5.462;2023-02-11T01:43:44;5.40;1.00
14401;DHT22;7285;50.894;5.462;2023-02-11T01:46:19;5.40;1.00
14401;DHT22;7285;50.894;5.462;2023-02-11T01:48:49;5.30;1.00
14401;DHT22;7285;50.894;5.462;2023-02-11T01:51:22;5.30;1.00
14401;DHT22;7285;50.894;5.462;2023-02-11T01:53:52;5.20;1.00
14401;DHT22;7285;50.894;5.462;2023-02-11T01:56:40;5.20;1.00
14401;DHT22;7285;50.894;5.462;2023-02-11T01:59:40;5.20;1.00
14401;DHT22;7285;50.894;5.462;2023-02-11T02:02:11;5.10;74.00
14401;DHT22;7285;50.894;5.462;2023-02-11T02:04:45;5.10;99.90
14401;DHT22;7285;50.894;5.462;2023-02-11T02:07:24;5.10;99.90
14401;DHT22;7285;50.894;5.462;2023-02-11T02:09:57;5.20;99.90
14401;DHT22;7285;50.894;5.462;2023-02-11T02:12:26;5.20;1.00
14401;DHT22;7285;50.894;5.462;2023-02-11T02:15:18;5.30;1.00
14401;DHT22;7285;50.894;5.462;2023-02-11T02:17:56;5.30;99.90
14401;DHT22;7285;50.894;5.462;2023-02-11T02:23:33;5.40;99.90
14401;DHT22;7285;50.894;5.462;2023-02-11T02:26:32;5.50;99.90
14401;DHT22;7285;50.894;5.462;2023-02-11T02:29:35;5.40;1.00
14401;DHT22;7285;50.894;5.462;2023-02-11T02:32:39;5.40;1.00
14401;DHT22;7285;50.894;5.462;2023-02-11T02:35:16;5.40;1.00
14401;DHT22;7285;50.894;5.462;2023-02-11T02:37:49;5.50;1.00
14401;DHT22;7285;50.894;5.462;2023-02-11T02:40:23;5.50;1.00
14401;DHT22;7285;50.894;5.462;2023-02-11T02:42:52;5.50;1.00
14401;DHT22;7285;50.894;5.462;2023-02-11T02:45:20;5.50;1.00
14401;DHT22;7285;50.894;5.462;2023-02-11T02:47:49;5.50;99.90
14401;DHT22;7285;50.894;5.462;2023-02-11T02:50:20;5.60;99.90
14401;DHT22;7285;50.894;5.462;2023-02-11T02:52:56;5.60;99.90
14401;DHT22;7285;50.894;5.462;2023-02-11T02:55:38;5.60;99.90
14401;DHT22;7285;50.894;5.462;2023-02-11T02:58:38;5.60;99.90
14401;DHT22;7285;50.894;5.462;2023-02-11T03:01:14;5.60;97.60
14401;DHT22;7285;50.894;5.462;2023-02-11T03:03:48;5.60;19.60
14401;DHT22;7285;50.894;5.462;2023-02-11T03:06:24;5.70;1.00
14401;DHT22;7285;50.894;5.462;2023-02-11T03:08:57;5.60;1.00
14401;DHT22;7285;50.894;5.462;2023-02-11T03:11:27;5.70;1.00
14401;DHT22;7285;50.894;5.462;2023-02-11T03:13:55;5.70;1.00
14401;DHT22;7285;50.894;5.462;2023-02-11T03:16:25;5.70;1.00
14401;DHT22;7285;50.894;5.462;2023-02-11T03:18:58;5.70;1.00
14401;DHT22;7285;50.894;5.462;2023-02-11T03:21:28;5.70;1.00
14401;DHT22;7285;50.894;5.462;2023-02-11T03:23:59;5.70;1.00
14401;DHT22;7285;50.894;5.462;2023-02-11T03:26:31;5.70;1.00
14401;DHT22;7285;50.894;5.462;2023-02-11T03:29:03;5.80;1.00
14401;DHT22;7285;50.894;5.462;2023-02-11T03:31:38;5.80;1.00
14401;DHT22;7285;50.894;5.462;2023-02-11T03:34:12;5.80;1.00
14401;DHT22;7285;50.894;5.462;2023-02-11T03:36:42;5.80;1.00
14401;DHT22;7285;50.894;5.462;2023-02-11T03:39:15;5.80;1.00
14401;DHT22;7285;50.894;5.462;2023-02-11T03:41:44;5.80;1.00
14401;DHT22;7285;50.894;5.462;2023-02-11T03:44:14;5.80;1.00
14401;DHT22;7285;50.894;5.462;2023-02-11T03:46:46;5.80;1.00
14401;DHT22;7285;50.894;5.462;2023-02-11T03:49:17;5.80;1.00
14401;DHT22;7285;50.894;5.462;2023-02-11T03:51:46;5.80;1.00
14401;DHT22;7285;50.894;5.462;2023-02-11T03:54:17;5.90;1.00
14401;DHT22;7285;50.894;5.462;2023-02-11T03:56:48;5.90;1.00
14401;DHT22;7285;50.894;5.462;2023-02-11T03:59:16;5.90;1.00
14401;DHT22;7285;50.894;5.462;2023-02-11T04:01:43;5.90;1.00
14401;DHT22;7285;50.894;5.462;2023-02-11T04:04:10;5.90;1.00
14401;DHT22;7285;50.894;5.462;2023-02-11T04:06:39;5.90;1.00
14401;DHT22;7285;50.894;5.462;2023-02-11T04:09:06;5.90;1.00
14401;DHT22;7285;50.894;5.462;2023-02-11T04:11:33;5.90;61.60
14401;DHT22;7285;50.894;5.462;2023-02-11T04:14:00;5.90;99.90
14401;DHT22;7285;50.894;5.462;2023-02-11T04:16:27;5.90;1.00
14401;DHT22;7285;50.894;5.462;2023-02-11T04:18:55;5.80;1.80
14401;DHT22;7285;50.894;5.462;2023-02-11T04:21:22;5.90;99.90
14401;DHT22;7285;50.894;5.462;2023-02-11T04:23:51;5.80;99.90
14401;DHT22;7285;50.894;5.462;2023-02-11T04:26:18;5.90;1.00
14401;DHT22;7285;50.894;5.462;2023-02-11T04:28:45;5.90;1.00
14401;DHT22;7285;50.894;5.462;2023-02-11T04:31:12;5.90;1.00
14401;DHT22;7285;50.894;5.462;2023-02-11T04:33:39;5.90;1.00
14401;DHT22;7285;50.894;5.462;2023-02-11T04:36:06;5.90;1.00
14401;DHT22;7285;50.894;5.462;2023-02-11T04:38:33;5.90;10.90
14401;DHT22;7285;50.894;5.462;2023-02-11T04:41:02;5.90;56.10
14401;DHT22;7285;50.894;5.462;2023-02-11T04:43:29;5.90;99.90
14401;DHT22;7285;50.894;5.462;2023-02-11T04:45:56;5.90;99.90
14401;DHT22;7285;50.894;5.462;2023-02-11T04:48:24;5.90;99.90
14401;DHT22;7285;50.894;5.462;2023-02-11T04:50:51;5.90;99.90
14401;DHT22;7285;50.894;5.462;2023-02-11T04:53:18;5.90;99.90
14401;DHT22;7285;50.894;5.462;2023-02-11T04:55:47;6.00;99.90
14401;DHT22;7285;50.894;5.462;2023-02-11T04:58:16;6.00;99.90
14401;DHT22;7285;50.894;5.462;2023-02-11T05:00:43;6.00;99.90
14401;DHT22;7285;50.894;5.462;2023-02-11T05:03:11;6.00;99.90
14401;DHT22;7285;50.894;5.462;2023-02-11T05:05:38;6.00;99.90
14401;DHT22;7285;50.894;5.462;2023-02-11T05:08:05;6.00;99.90
14401;DHT22;7285;50.894;5.462;2023-02-11T05:10:32;6.00;99.90
14401;DHT22;7285;50.894;5.462;2023-02-11T05:12:59;6.00;99.90
14401;DHT22;7285;50.894;5.462;2023-02-11T05:15:28;6.00;99.90
14401;DHT22;7285;50.894;5.462;2023-02-11T05:17:55;6.00;99.90
14401;DHT22;7285;50.894;5.462;2023-02-11T05:20:23;6.10;99.90
14401;DHT22;7285;50.894;5.462;2023-02-11T05:22:50;6.10;99.90
14401;DHT22;7285;50.894;5.462;2023-02-11T05:25:17;6.10;99.90
14401;DHT22;7285;50.894;5.462;2023-02-11T05:27:44;6.10;1.00
14401;DHT22;7285;50.894;5.462;2023-02-11T05:30:12;6.10;1.00
14401;DHT22;7285;50.894;5.462;2023-02-11T05:32:40;6.10;1.00
14401;DHT22;7285;50.894;5.462;2023-02-11T05:35:07;6.10;1.00
14401;DHT22;7285;50.894;5.462;2023-02-11T05:37:35;6.10;1.00
14401;DHT22;7285;50.894;5.462;2023-02-11T05:40:02;6.10;1.00
14401;DHT22;7285;50.894;5.462;2023-02-11T05:42:29;6.10;1.00
14401;DHT22;7285;50.894;5.462;2023-02-11T05:44:56;6.10;99.90
14401;DHT22;7285;50.894;5.462;2023-02-11T05:47:23;6.00;99.90
14401;DHT22;7285;50.894;5.462;2023-02-11T05:49:52;6.00;1.00
14401;DHT22;7285;50.894;5.462;2023-02-11T05:52:19;6.00;1.00
14401;DHT22;7285;50.894;5.462;2023-02-11T05:54:46;6.00;58.80
14401;DHT22;7285;50.894;5.462;2023-02-11T05:57:13;6.00;99.90
14401;DHT22;7285;50.894;5.462;2023-02-11T05:59:40;6.00;1.00
14401;DHT22;7285;50.894;5.462;2023-02-11T06:02:08;6.00;1.00
14401;DHT22;7285;50.894;5.462;2023-02-11T06:04:35;5.90;99.90
14401;DHT22;7285;50.894;5.462;2023-02-11T06:07:04;5.90;99.90
14401;DHT22;7285;50.894;5.462;2023-02-11T06:09:31;5.90;1.00
14401;DHT22;7285;50.894;5.462;2023-02-11T06:11:58;6.00;1.00
14401;DHT22;7285;50.894;5.462;2023-02-11T06:14:25;6.00;1.00
14401;DHT22;7285;50.894;5.462;2023-02-11T06:16:52;6.00;1.00
14401;DHT22;7285;50.894;5.462;2023-02-11T06:19:19;5.90;1.00
14401;DHT22;7285;50.894;5.462;2023-02-11T06:21:46;6.00;1.00
14401;DHT22;7285;50.894;5.462;2023-02-11T06:24:14;6.00;2.60
14401;DHT22;7285;50.894;5.462;2023-02-11T06:26:41;6.00;84.70
14401;DHT22;7285;50.894;5.462;2023-02-11T06:29:08;6.00;99.90
14401;DHT22;7285;50.894;5.462;2023-02-11T06:31:36;6.00;99.90
14401;DHT22;7285;50.894;5.462;2023-02-11T06:34:03;6.00;99.90
14401;DHT22;7285;50.894;5.462;2023-02-11T06:36:30;6.00;99.90
14401;DHT22;7285;50.894;5.462;2023-02-11T06:38:57;6.00;99.90
14401;DHT22;7285;50.894;5.462;2023-02-11T06:41:26;6.00;99.90
14401;DHT22;7285;50.894;5.462;2023-02-11T06:43:53;6.00;99.90
14401;DHT22;7285;50.894;5.462;2023-02-11T06:46:20;6.00;1.00
14401;DHT22;7285;50.894;5.462;2023-02-11T06:48:47;6.00;1.00
14401;DHT22;7285;50.894;5.462;2023-02-11T06:51:16;5.90;1.00
14401;DHT22;7285;50.894;5.462;2023-02-11T06:53:45;5.90;1.00
14401;DHT22;7285;50.894;5.462;2023-02-11T06:56:14;6.00;1.00
14401;DHT22;7285;50.894;5.462;2023-02-11T06:58:44;6.00;1.00
14401;DHT22;7285;50.894;5.462;2023-02-11T07:01:14;5.90;1.00
14401;DHT22;7285;50.894;5.462;2023-02-11T07:03:43;6.00;1.00
14401;DHT22;7285;50.894;5.462;2023-02-11T07:06:11;6.00;1.00
14401;DHT22;7285;50.894;5.462;2023-02-11T07:08:39;6.00;1.00
14401;DHT22;7285;50.894;5.462;2023-02-11T07:11:08;6.00;1.00
14401;DHT22;7285;50.894;5.462;2023-02-11T07:13:36;6.00;1.00
14401;DHT22;7285;50.894;5.462;2023-02-11T07:16:08;6.00;1.00
14401;DHT22;7285;50.894;5.462;2023-02-11T07:18:35;6.00;1.00
14401;DHT22;7285;50.894;5.462;2023-02-11T07:21:04;6.00;1.00
14401;DHT22;7285;50.894;5.462;2023-02-11T07:23:31;6.00;1.00
14401;DHT22;7285;50.894;5.462;2023-02-11T07:26:02;6.00;1.00
14401;DHT22;7285;50.894;5.462;2023-02-11T07:28:29;6.00;1.00
14401;DHT22;7285;50.894;5.462;2023-02-11T07:30:56;6.10;1.00
14401;DHT22;7285;50.894;5.462;2023-02-11T07:33:25;6.00;1.00
14401;DHT22;7285;50.894;5.462;2023-02-11T07:35:52;6.00;1.00
14401;DHT22;7285;50.894;5.462;2023-02-11T07:38:19;6.10;1.00
14401;DHT22;7285;50.894;5.462;2023-02-11T07:40:46;6.10;1.00
14401;DHT22;7285;50.894;5.462;2023-02-11T07:43:12;6.10;1.00
14401;DHT22;7285;50.894;5.462;2023-02-11T07:45:39;6.10;1.00
14401;DHT22;7285;50.894;5.462;2023-02-11T07:48:06;6.10;1.00
14401;DHT22;7285;50.894;5.462;2023-02-11T07:50:35;6.20;1.00
14401;DHT22;7285;50.894;5.462;2023-02-11T07:53:02;6.10;1.00
14401;DHT22;7285;50.894;5.462;2023-02-11T07:55:29;6.20;1.00
14401;DHT22;7285;50.894;5.462;2023-02-11T07:57:56;6.20;1.00
14401;DHT22;7285;50.894;5.462;2023-02-11T08:00:23;6.10;1.00
14401;DHT22;7285;50.894;5.462;2023-02-11T08:02:50;6.20;1.00
14401;DHT22;7285;50.894;5.462;2023-02-11T08:05:17;6.20;1.00
14401;DHT22;7285;50.894;5.462;2023-02-11T08:07:46;6.20;1.00
14401;DHT22;7285;50.894;5.462;2023-02-11T08:10:16;6.20;1.00
14401;DHT22;7285;50.894;5.462;2023-02-11T08:12:43;6.20;18.70
14401;DHT22;7285;50.894;5.462;2023-02-11T08:15:10;6.20;24.70
14401;DHT22;7285;50.894;5.462;2023-02-11T08:17:37;6.20;45.90
14401;DHT22;7285;50.894;5.462;2023-02-11T08:20:05;6.10;51.80
14401;DHT22;7285;50.894;5.462;2023-02-11T08:22:33;6.20;99.90
14401;DHT22;7285;50.894;5.462;2023-02-11T08:25:02;6.20;99.90
14401;DHT22;7285;50.894;5.462;2023-02-11T08:27:29;6.20;99.90
14401;DHT22;7285;50.894;5.462;2023-02-11T08:29:56;6.20;99.90
14401;DHT22;7285;50.894;5.462;2023-02-11T08:32:24;6.20;99.90
14401;DHT22;7285;50.894;5.462;2023-02-11T08:34:51;6.20;99.90
14401;DHT22;7285;50.894;5.462;2023-02-11T08:37:19;6.20;99.90
14401;DHT22;7285;50.894;5.462;2023-02-11T08:39:47;6.20;99.90
14401;DHT22;7285;50.894;5.462;2023-02-11T08:42:16;6.20;99.90
14401;DHT22;7285;50.894;5.462;2023-02-11T08:44:43;6.30;99.90
14401;DHT22;7285;50.894;5.462;2023-02-11T08:47:13;6.30;99.90
14401;DHT22;7285;50.894;5.462;2023-02-11T08:49:43;6.30;99.90
14401;DHT22;7285;50.894;5.462;2023-02-11T08:52:10;6.30;99.90
14401;DHT22;7285;50.894;5.462;2023-02-11T08:54:37;6.30;99.90
14401;DHT22;7285;50.894;5.462;2023-02-11T08:57:04;6.30;99.90
14401;DHT22;7285;50.894;5.462;2023-02-11T08:59:34;6.40;99.90
14401;DHT22;7285;50.894;5.462;2023-02-11T09:02:01;6.40;99.90
14401;DHT22;7285;50.894;5.462;2023-02-11T09:04:28;6.40;99.90
14401;DHT22;7285;50.894;5.462;2023-02-11T09:06:56;6.40;99.90
14401;DHT22;7285;50.894;5.462;2023-02-11T09:09:23;6.50;99.90
14401;DHT22;7285;50.894;5.462;2023-02-11T09:11:50;6.50;99.90
14401;DHT22;7285;50.894;5.462;2023-02-11T09:14:22;6.50;99.90
14401;DHT22;7285;50.894;5.462;2023-02-11T09:16:52;6.50;99.90
14401;DHT22;7285;50.894;5.462;2023-02-11T09:19:19;6.60;99.90
14401;DHT22;7285;50.894;5.462;2023-02-11T09:21:47;6.60;99.90
14401;DHT22;7285;50.894;5.462;2023-02-11T09:24:15;6.60;99.90
14401;DHT22;7285;50.894;5.462;2023-02-11T09:26:43;6.70;99.90
14401;DHT22;7285;50.894;5.462;2023-02-11T09:29:10;6.70;99.90
14401;DHT22;7285;50.894;5.462;2023-02-11T09:31:37;6.70;22.10
14401;DHT22;7285;50.894;5.462;2023-02-11T09:34:06;6.80;1.00
14401;DHT22;7285;50.894;5.462;2023-02-11T09:36:35;6.80;1.00
14401;DHT22;7285;50.894;5.462;2023-02-11T09:39:04;6.90;1.00
14401;DHT22;7285;50.894;5.462;2023-02-11T09:41:44;6.80;1.00
14401;DHT22;7285;50.894;5.462;2023-02-11T09:44:19;6.90;1.00
14401;DHT22;7285;50.894;5.462;2023-02-11T09:46:52;6.90;1.00
14401;DHT22;7285;50.894;5.462;2023-02-11T09:49:25;6.90;1.00
14401;DHT22;7285;50.894;5.462;2023-02-11T09:52:00;6.90;1.00
14401;DHT22;7285;50.894;5.462;2023-02-11T09:54:34;6.90;1.00
14401;DHT22;7285;50.894;5.462;2023-02-11T09:57:03;7.00;1.00
14401;DHT22;7285;50.894;5.462;2023-02-11T09:59:31;7.00;99.90
14401;DHT22;7285;50.894;5.462;2023-02-11T10:02:03;7.00;99.90
14401;DHT22;7285;50.894;5.462;2023-02-11T10:04:56;7.10;99.90
14401;DHT22;7285;50.894;5.462;2023-02-11T10:07:36;7.10;99.90
14401;DHT22;7285;50.894;5.462;2023-02-11T10:10:15;7.10;1.00
14401;DHT22;7285;50.894;5.462;2023-02-11T10:12:54;7.10;1.00
14401;DHT22;7285;50.894;5.462;2023-02-11T10:15:34;7.10;1.00
14401;DHT22;7285;50.894;5.462;2023-02-11T10:18:36;7.10;1.00
14401;DHT22;7285;50.894;5.462;2023-02-11T10:21:18;7.10;1.00
14401;DHT22;7285;50.894;5.462;2023-02-11T10:23:47;7.10;1.00
14401;DHT22;7285;50.894;5.462;2023-02-11T10:26:17;7.10;1.00
14401;DHT22;7285;50.894;5.462;2023-02-11T10:28:46;7.20;1.00
14401;DHT22;7285;50.894;5.462;2023-02-11T10:31:16;7.20;1.00
14401;DHT22;7285;50.894;5.462;2023-02-11T10:33:45;7.20;1.00
14401;DHT22;7285;50.894;5.462;2023-02-11T10:36:17;7.20;1.00
14401;DHT22;7285;50.894;5.462;2023-02-11T10:38:44;7.20;1.00
14401;DHT22;7285;50.894;5.462;2023-02-11T10:41:16;7.20;1.00
14401;DHT22;7285;50.894;5.462;2023-02-11T10:43:43;7.30;1.00
14401;DHT22;7285;50.894;5.462;2023-02-11T10:46:17;7.30;1.00
14401;DHT22;7285;50.894;5.462;2023-02-11T10:48:47;7.30;99.90
14401;DHT22;7285;50.894;5.462;2023-02-11T10:51:19;7.30;99.90
14401;DHT22;7285;50.894;5.462;2023-02-11T10:53:48;7.30;99.90
14401;DHT22;7285;50.894;5.462;2023-02-11T10:56:22;7.30;12.10
14401;DHT22;7285;50.894;5.462;2023-02-11T10:58:58;7.30;80.40
14401;DHT22;7285;50.894;5.462;2023-02-11T11:01:39;7.30;34.70
14401;DHT22;7285;50.894;5.462;2023-02-11T11:04:31;7.30;99.90
14401;DHT22;7285;50.894;5.462;2023-02-11T11:07:20;7.40;99.90
14401;DHT22;7285;50.894;5.462;2023-02-11T11:09:51;7.40;74.50
14401;DHT22;7285;50.894;5.462;2023-02-11T11:12:30;7.40;99.90
14401;DHT22;7285;50.894;5.462;2023-02-11T11:15:00;7.50;6.30
14401;DHT22;7285;50.894;5.462;2023-02-11T11:17:28;7.40;1.00
14401;DHT22;7285;50.894;5.462;2023-02-11T11:20:12;7.50;1.00
14401;DHT22;7285;50.894;5.462;2023-02-11T11:22:41;7.50;1.00
14401;DHT22;7285;50.894;5.462;2023-02-11T11:25:24;7.50;1.00
14401;DHT22;7285;50.894;5.462;2023-02-11T11:27:53;7.50;99.90
14401;DHT22;7285;50.894;5.462;2023-02-11T11:30:22;7.50;99.90
14401;DHT22;7285;50.894;5.462;2023-02-11T11:32:51;7.50;99.90
14401;DHT22;7285;50.894;5.462;2023-02-11T11:35:23;7.50;99.90
14401;DHT22;7285;50.894;5.462;2023-02-11T11:37:58;7.50;99.90
14401;DHT22;7285;50.894;5.462;2023-02-11T11:40:28;7.50;99.90
14401;DHT22;7285;50.894;5.462;2023-02-11T11:43:14;7.50;99.90
14401;DHT22;7285;50.894;5.462;2023-02-11T11:45:55;7.50;99.90
14401;DHT22;7285;50.894;5.462;2023-02-11T11:48:25;7.50;99.90
14401;DHT22;7285;50.894;5.462;2023-02-11T11:50:56;7.60;99.90
14401;DHT22;7285;50.894;5.462;2023-02-11T11:53:30;7.50;99.90
14401;DHT22;7285;50.894;5.462;2023-02-11T11:56:02;7.50;99.90
14401;DHT22;7285;50.894;5.462;2023-02-11T11:58:32;7.60;99.90
14401;DHT22;7285;50.894;5.462;2023-02-11T12:01:07;7.60;99.90
14401;DHT22;7285;50.894;5.462;2023-02-11T12:06:50;7.70;1.00
14401;DHT22;7285;50.894;5.462;2023-02-11T12:09:25;7.70;1.00
14401;DHT22;7285;50.894;5.462;2023-02-11T12:12:23;7.70;1.00
14401;DHT22;7285;50.894;5.462;2023-02-11T12:15:06;7.80;1.00
14401;DHT22;7285;50.894;5.462;2023-02-11T12:17:56;7.80;1.00
14401;DHT22;7285;50.894;5.462;2023-02-11T12:20:32;7.80;1.00
14401;DHT22;7285;50.894;5.462;2023-02-11T12:23:17;7.70;99.90
14401;DHT22;7285;50.894;5.462;2023-02-11T12:25:54;7.70;1.00
14401;DHT22;7285;50.894;5.462;2023-02-11T12:28:30;7.70;99.90
14401;DHT22;7285;50.894;5.462;2023-02-11T12:31:14;7.80;1.00
14401;DHT22;7285;50.894;5.462;2023-02-11T12:33:55;7.80;1.00
14401;DHT22;7285;50.894;5.462;2023-02-11T12:36:36;7.80;99.90
14401;DHT22;7285;50.894;5.462;2023-02-11T12:39:30;7.80;99.90
14401;DHT22;7285;50.894;5.462;2023-02-11T12:42:13;7.80;99.90
14401;DHT22;7285;50.894;5.462;2023-02-11T12:45:12;7.90;99.90
14401;DHT22;7285;50.894;5.462;2023-02-11T12:47:59;8.00;97.60
14401;DHT22;7285;50.894;5.462;2023-02-11T12:50:40;8.00;1.00
14401;DHT22;7285;50.894;5.462;2023-02-11T12:53:49;8.00;1.00
14401;DHT22;7285;50.894;5.462;2023-02-11T12:56:22;8.10;1.00
14401;DHT22;7285;50.894;5.462;2023-02-11T12:58:55;8.10;1.00
14401;DHT22;7285;50.894;5.462;2023-02-11T13:01:26;8.10;1.00
14401;DHT22;7285;50.894;5.462;2023-02-11T13:03:57;8.10;15.60
14401;DHT22;7285;50.894;5.462;2023-02-11T13:06:32;8.00;99.90
14401;DHT22;7285;50.894;5.462;2023-02-11T13:09:02;8.10;1.00
14401;DHT22;7285;50.894;5.462;2023-02-11T13:11:36;8.20;99.90
14401;DHT22;7285;50.894;5.462;2023-02-11T13:14:11;8.10;99.90
14401;DHT22;7285;50.894;5.462;2023-02-11T13:16:41;8.20;99.90
14401;DHT22;7285;50.894;5.462;2023-02-11T13:19:18;8.20;99.90
14401;DHT22;7285;50.894;5.462;2023-02-11T13:21:59;8.20;1.00
14401;DHT22;7285;50.894;5.462;2023-02-11T13:24:33;8.30;1.00
14401;DHT22;7285;50.894;5.462;2023-02-11T13:27:09;8.30;1.00
14401;DHT22;7285;50.894;5.462;2023-02-11T13:30:02;8.20;99.90
14401;DHT22;7285;50.894;5.462;2023-02-11T13:33:03;8.30;99.90
14401;DHT22;7285;50.894;5.462;2023-02-11T13:35:32;8.30;99.90
14401;DHT22;7285;50.894;5.462;2023-02-11T13:38:01;8.30;70.00
14401;DHT22;7285;50.894;5.462;2023-02-11T13:40:31;8.30;91.70
14401;DHT22;7285;50.894;5.462;2023-02-11T13:43:01;8.40;1.00
14401;DHT22;7285;50.894;5.462;2023-02-11T13:45:34;8.40;1.00
14401;DHT22;7285;50.894;5.462;2023-02-11T13:48:04;8.30;1.00
14401;DHT22;7285;50.894;5.462;2023-02-11T13:50:37;8.30;99.90
14401;DHT22;7285;50.894;5.462;2023-02-11T13:53:07;8.40;1.00
14401;DHT22;7285;50.894;5.462;2023-02-11T13:55:37;8.40;1.00
14401;DHT22;7285;50.894;5.462;2023-02-11T13:58:35;8.40;1.00
14401;DHT22;7285;50.894;5.462;2023-02-11T14:01:06;8.40;1.00
14401;DHT22;7285;50.894;5.462;2023-02-11T14:03:35;8.40;1.00
14401;DHT22;7285;50.894;5.462;2023-02-11T14:06:26;8.40;99.90
14401;DHT22;7285;50.894;5.462;2023-02-11T14:09:37;8.40;1.00
14401;DHT22;7285;50.894;5.462;2023-02-11T14:12:23;8.40;1.00
14401;DHT22;7285;50.894;5.462;2023-02-11T14:15:16;8.40;1.00
14401;DHT22;7285;50.894;5.462;2023-02-11T14:17:45;8.40;1.00
14401;DHT22;7285;50.894;5.462;2023-02-11T14:20:32;8.40;1.00
14401;DHT22;7285;50.894;5.462;2023-02-11T14:23:00;8.40;1.00
14401;DHT22;7285;50.894;5.462;2023-02-11T14:25:29;8.40;1.00
14401;DHT22;7285;50.894;5.462;2023-02-11T14:28:01;8.40;1.00
14401;DHT22;7285;50.894;5.462;2023-02-11T14:30:39;8.40;1.00
14401;DHT22;7285;50.894;5.462;2023-02-11T14:33:44;8.40;99.90
14401;DHT22;7285;50.894;5.462;2023-02-11T14:36:28;8.40;99.90
14401;DHT22;7285;50.894;5.462;2023-02-11T14:39:15;8.30;99.90
14401;DHT22;7285;50.894;5.462;2023-02-11T14:41:45;8.30;1.00
14401;DHT22;7285;50.894;5.462;2023-02-11T14:44:18;8.40;1.00
14401;DHT22;7285;50.894;5.462;2023-02-11T14:46:47;8.40;1.00
14401;DHT22;7285;50.894;5.462;2023-02-11T14:49:22;8.30;1.00
14401;DHT22;7285;50.894;5.462;2023-02-11T14:51:53;8.30;1.00
14401;DHT22;7285;50.894;5.462;2023-02-11T14:54:22;8.30;1.00
14401;DHT22;7285;50.894;5.462;2023-02-11T14:57:06;8.40;1.00
14401;DHT22;7285;50.894;5.462;2023-02-11T14:59:34;8.40;1.00
14401;DHT22;7285;50.894;5.462;2023-02-11T15:02:01;8.40;1.00
14401;DHT22;7285;50.894;5.462;2023-02-11T15:04:31;8.40;99.90
14401;DHT22;7285;50.894;5.462;2023-02-11T15:07:04;8.40;99.90
14401;DHT22;7285;50.894;5.462;2023-02-11T15:09:38;8.40;99.90
14401;DHT22;7285;50.894;5.462;2023-02-11T15:12:15;8.40;99.90
14401;DHT22;7285;50.894;5.462;2023-02-11T15:14:45;8.30;99.90
14401;DHT22;7285;50.894;5.462;2023-02-11T15:17:17;8.30;99.90
14401;DHT22;7285;50.894;5.462;2023-02-11T15:19:48;8.30;99.90
14401;DHT22;7285;50.894;5.462;2023-02-11T15:22:19;8.30;99.90
14401;DHT22;7285;50.894;5.462;2023-02-11T15:24:58;8.30;1.00
14401;DHT22;7285;50.894;5.462;2023-02-11T15:27:25;8.30;1.00
14401;DHT22;7285;50.894;5.462;2023-02-11T15:29:52;8.30;1.00
14401;DHT22;7285;50.894;5.462;2023-02-11T15:32:21;8.30;1.00
14401;DHT22;7285;50.894;5.462;2023-02-11T15:34:51;8.30;1.00
14401;DHT22;7285;50.894;5.462;2023-02-11T15:37:22;8.30;1.00
14401;DHT22;7285;50.894;5.462;2023-02-11T15:39:50;8.30;1.00
14401;DHT22;7285;50.894;5.462;2023-02-11T15:42:20;8.30;1.00
14401;DHT22;7285;50.894;5.462;2023-02-11T15:44:49;8.30;1.00
14401;DHT22;7285;50.894;5.462;2023-02-11T15:47:19;8.30;1.00
14401;DHT22;7285;50.894;5.462;2023-02-11T15:49:47;8.30;1.00
14401;DHT22;7285;50.894;5.462;2023-02-11T15:52:23;8.30;1.00
14401;DHT22;7285;50.894;5.462;2023-02-11T15:54:51;8.30;1.00
14401;DHT22;7285;50.894;5.462;2023-02-11T15:57:19;8.30;1.00
14401;DHT22;7285;50.894;5.462;2023-02-11T15:59:52;8.30;1.00
14401;DHT22;7285;50.894;5.462;2023-02-11T16:02:22;8.20;1.00
14401;DHT22;7285;50.894;5.462;2023-02-11T16:04:52;8.30;1.00
14401;DHT22;7285;50.894;5.462;2023-02-11T16:07:43;8.20;1.00
14401;DHT22;7285;50.894;5.462;2023-02-11T16:10:18;8.20;1.00
14401;DHT22;7285;50.894;5.462;2023-02-11T16:12:54;8.20;1.00
14401;DHT22;7285;50.894;5.462;2023-02-11T16:18:26;8.20;1.00
14401;DHT22;7285;50.894;5.462;2023-02-11T16:20:53;8.20;56.40
14401;DHT22;7285;50.894;5.462;2023-02-11T16:23:24;8.10;97.90
14401;DHT22;7285;50.894;5.462;2023-02-11T16:25:58;8.10;99.90
14401;DHT22;7285;50.894;5.462;2023-02-11T16:28:27;8.10;99.90
14401;DHT22;7285;50.894;5.462;2023-02-11T16:30:55;8.10;99.90
14401;DHT22;7285;50.894;5.462;2023-02-11T16:33:23;8.10;99.90
14401;DHT22;7285;50.894;5.462;2023-02-11T16:35:50;8.10;99.90
14401;DHT22;7285;50.894;5.462;2023-02-11T16:38:16;8.00;99.90
14401;DHT22;7285;50.894;5.462;2023-02-11T16:40:45;8.00;1.00
14401;DHT22;7285;50.894;5.462;2023-02-11T16:43:17;8.00;1.00
14401;DHT22;7285;50.894;5.462;2023-02-11T16:45:44;8.00;1.00
14401;DHT22;7285;50.894;5.462;2023-02-11T16:48:15;8.00;1.00